Wetterdaten: Woche 17.08.09 - 23.08.09 (KW34)
Datum Zeit Temperatur Luftfeuchte Luftdruck Niederschlag Windrichtung Wind
17.08.2009 00:00 18,2 C 87 % 1014,7 hPa 0,0 l/m N 0,8 km/h (0 Bft)
17.08.2009 01:00 17,6 C 89 % 1014,6 hPa 0,0 l/m N 0,3 km/h (0 Bft)
17.08.2009 02:00 17,0 C 90 % 1014,4 hPa 0,0 l/m N 0,0 km/h (0 Bft)
17.08.2009 03:00 16,3 C 91 % 1014,4 hPa 0,0 l/m N 0,0 km/h (0 Bft)
17.08.2009 04:00 15,8 C 92 % 1014,3 hPa 0,0 l/m N 0,0 km/h (0 Bft)
17.08.2009 05:00 15,4 C 93 % 1014,4 hPa 0,0 l/m N 0,0 km/h (0 Bft)
17.08.2009 06:00 15,1 C 93 % 1014,5 hPa 0,0 l/m N 0,0 km/h (0 Bft)
17.08.2009 07:00 15,8 C 96 % 1014,8 hPa 0,0 l/m W-SW 3,1 km/h (1 Bft)
17.08.2009 08:00 18,9 C 86 % 1014,8 hPa 0,0 l/m S-SW 11,0 km/h (2 Bft)
17.08.2009 09:00 22,1 C 69 % 1014,7 hPa 0,0 l/m S-SO 14,5 km/h (3 Bft)
17.08.2009 10:00 24,4 C 62 % 1014,7 hPa 0,0 l/m SW 17,0 km/h (3 Bft)
17.08.2009 11:00 26,2 C 55 % 1014,6 hPa 0,0 l/m W 18,0 km/h (3 Bft)
17.08.2009 12:00 27,6 C 49 % 1014,3 hPa 0,0 l/m SW 21,6 km/h (4 Bft)
17.08.2009 13:00 28,5 C 47 % 1013,9 hPa 0,0 l/m W-SW 22,2 km/h (4 Bft)
17.08.2009 14:00 28,6 C 43 % 1013,7 hPa 0,0 l/m W-SW 21,2 km/h (4 Bft)
17.08.2009 15:00 28,5 C 43 % 1013,4 hPa 0,0 l/m W-SW 21,8 km/h (4 Bft)
17.08.2009 16:00 29,1 C 41 % 1012,8 hPa 0,0 l/m W 21,0 km/h (4 Bft)
17.08.2009 17:00 28,5 C 43 % 1012,2 hPa 0,0 l/m W-SW 18,1 km/h (3 Bft)
17.08.2009 18:00 27,7 C 45 % 1011,6 hPa 0,0 l/m W-SW 16,1 km/h (3 Bft)
17.08.2009 19:00 24,7 C 61 % 1011,8 hPa 0,0 l/m W 5,3 km/h (1 Bft)
17.08.2009 20:00 22,4 C 69 % 1012,6 hPa 2,8 l/m N-NW 12,5 km/h (3 Bft)
17.08.2009 21:00 18,5 C 86 % 1013,7 hPa 3,6 l/m N 9,5 km/h (2 Bft)
17.08.2009 22:00 17,5 C 92 % 1014,5 hPa 0,0 l/m S-SW 6,2 km/h (2 Bft)
17.08.2009 23:00 17,3 C 93 % 1014,7 hPa 0,0 l/m N 1,6 km/h (1 Bft)
18.08.2009 00:00 17,3 C 94 % 1015,2 hPa 0,0 l/m N 1,1 km/h (0 Bft)
18.08.2009 01:00 17,1 C 94 % 1015,6 hPa 0,0 l/m N 0,5 km/h (0 Bft)
18.08.2009 02:00 16,7 C 94 % 1015,9 hPa 0,0 l/m N 0,0 km/h (0 Bft)
18.08.2009 03:00 16,6 C 95 % 1016,2 hPa 0,0 l/m SW 0,8 km/h (0 Bft)
18.08.2009 04:00 16,5 C 95 % 1016,3 hPa 0,0 l/m N 0,4 km/h (0 Bft)
18.08.2009 05:00 16,4 C 95 % 1016,4 hPa 0,0 l/m N 0,3 km/h (0 Bft)
18.08.2009 06:00 16,2 C 96 % 1016,8 hPa 0,0 l/m N 0,4 km/h (0 Bft)
18.08.2009 07:00 16,5 C 96 % 1017,1 hPa 0,0 l/m N 0,4 km/h (0 Bft)
18.08.2009 08:00 18,4 C 94 % 1017,2 hPa 0,0 l/m N 1,2 km/h (1 Bft)
18.08.2009 09:00 20,6 C 83 % 1017,6 hPa 0,0 l/m O-SO 4,8 km/h (1 Bft)
18.08.2009 10:00 22,1 C 77 % 1017,8 hPa 0,0 l/m O-SO 5,7 km/h (1 Bft)
18.08.2009 11:00 23,4 C 73 % 1017,9 hPa 0,0 l/m SO 7,4 km/h (2 Bft)
18.08.2009 12:00 24,6 C 66 % 1018,0 hPa 0,0 l/m W-NW 8,5 km/h (2 Bft)
18.08.2009 13:00 25,7 C 62 % 1017,8 hPa 0,0 l/m N-NO 8,4 km/h (2 Bft)
18.08.2009 14:00 26,6 C 57 % 1017,5 hPa 0,0 l/m W-NW 8,0 km/h (2 Bft)
18.08.2009 15:00 26,7 C 52 % 1017,3 hPa 0,0 l/m NO 6,3 km/h (2 Bft)
18.08.2009 16:00 27,5 C 49 % 1017,1 hPa 0,0 l/m W 8,2 km/h (2 Bft)
18.08.2009 17:00 27,4 C 49 % 1016,8 hPa 0,0 l/m W-SW 6,3 km/h (2 Bft)
18.08.2009 18:00 26,9 C 53 % 1016,7 hPa 0,0 l/m W-NW 3,7 km/h (1 Bft)
18.08.2009 19:00 25,4 C 59 % 1016,9 hPa 0,0 l/m NO 10,9 km/h (2 Bft)
18.08.2009 20:00 22,5 C 69 % 1017,4 hPa 0,0 l/m N-NO 6,8 km/h (2 Bft)
18.08.2009 21:00 20,5 C 75 % 1018,2 hPa 0,0 l/m N-NO 4,3 km/h (1 Bft)
18.08.2009 22:00 19,3 C 78 % 1018,5 hPa 0,0 l/m N-NW 3,9 km/h (1 Bft)
18.08.2009 23:00 18,5 C 79 % 1018,5 hPa 0,0 l/m N-NW 4,8 km/h (1 Bft)
19.08.2009 00:00 18,0 C 79 % 1018,6 hPa 0,0 l/m N-NW 5,3 km/h (1 Bft)
19.08.2009 01:00 17,5 C 80 % 1018,5 hPa 0,0 l/m N-NW 5,2 km/h (1 Bft)
19.08.2009 02:00 17,1 C 82 % 1018,4 hPa 0,0 l/m N-NW 5,7 km/h (1 Bft)
19.08.2009 03:00 16,5 C 86 % 1018,3 hPa 0,0 l/m N 2,7 km/h (1 Bft)
19.08.2009 04:00 15,9 C 89 % 1018,4 hPa 0,0 l/m N-NW 2,7 km/h (1 Bft)
19.08.2009 05:00 15,4 C 89 % 1018,1 hPa 0,0 l/m N-NW 2,7 km/h (1 Bft)
19.08.2009 06:00 15,0 C 90 % 1018,3 hPa 0,0 l/m N 1,3 km/h (1 Bft)
19.08.2009 07:00 15,7 C 88 % 1018,5 hPa 0,0 l/m N-NW 2,3 km/h (1 Bft)
19.08.2009 08:00 18,1 C 82 % 1018,9 hPa 0,0 l/m NO 4,1 km/h (1 Bft)
19.08.2009 09:00 20,6 C 76 % 1019,1 hPa 0,0 l/m NO 3,7 km/h (1 Bft)
19.08.2009 10:00 23,1 C 70 % 1019,2 hPa 0,0 l/m S 6,8 km/h (2 Bft)
19.08.2009 11:00 25,3 C 66 % 1019,4 hPa 0,0 l/m SW 7,4 km/h (2 Bft)
19.08.2009 12:00 27,3 C 59 % 1019,2 hPa 0,0 l/m S-SW 9,8 km/h (2 Bft)
19.08.2009 13:00 28,3 C 55 % 1018,9 hPa 0,0 l/m S 11,2 km/h (2 Bft)
19.08.2009 14:00 29,4 C 51 % 1018,5 hPa 0,0 l/m S-SO 10,5 km/h (2 Bft)
19.08.2009 15:00 30,1 C 45 % 1018,4 hPa 0,0 l/m SO 11,5 km/h (2 Bft)
19.08.2009 16:00 30,4 C 43 % 1018,0 hPa 0,0 l/m S 9,5 km/h (2 Bft)
19.08.2009 17:00 30,4 C 42 % 1017,7 hPa 0,0 l/m S-SW 9,1 km/h (2 Bft)
19.08.2009 18:00 28,9 C 50 % 1017,6 hPa 0,0 l/m W-SW 4,0 km/h (1 Bft)
19.08.2009 19:00 26,5 C 68 % 1017,4 hPa 0,0 l/m N 0,8 km/h (0 Bft)
19.08.2009 20:00 23,9 C 72 % 1017,5 hPa 0,0 l/m N 0,1 km/h (0 Bft)
19.08.2009 21:00 21,7 C 74 % 1018,2 hPa 0,0 l/m N 0,4 km/h (0 Bft)
19.08.2009 22:00 20,4 C 79 % 1018,5 hPa 0,0 l/m W-NW 0,7 km/h (0 Bft)
19.08.2009 23:00 19,7 C 83 % 1018,7 hPa 0,0 l/m W-NW 2,7 km/h (1 Bft)
20.08.2009 00:00 19,2 C 85 % 1018,9 hPa 0,0 l/m N 1,2 km/h (1 Bft)
20.08.2009 01:00 18,4 C 89 % 1019,1 hPa 0,0 l/m N 0,8 km/h (0 Bft)
20.08.2009 02:00 18,0 C 90 % 1018,8 hPa 0,0 l/m N 0,3 km/h (0 Bft)
20.08.2009 03:00 17,5 C 90 % 1018,6 hPa 0,0 l/m N 0,3 km/h (0 Bft)
20.08.2009 04:00 17,0 C 92 % 1018,5 hPa 0,0 l/m N 0,0 km/h (0 Bft)
20.08.2009 05:00 16,6 C 92 % 1018,3 hPa 0,0 l/m N 0,0 km/h (0 Bft)
20.08.2009 06:00 16,2 C 93 % 1018,3 hPa 0,0 l/m N 0,0 km/h (0 Bft)
20.08.2009 07:00 16,6 C 95 % 1018,3 hPa 0,0 l/m N 0,0 km/h (0 Bft)
20.08.2009 08:00 19,5 C 88 % 1018,3 hPa 0,0 l/m W-NW 2,3 km/h (1 Bft)
20.08.2009 09:00 22,4 C 75 % 1018,4 hPa 0,0 l/m SW 3,7 km/h (1 Bft)
20.08.2009 10:00 24,8 C 62 % 1018,4 hPa 0,0 l/m S-SW 7,9 km/h (2 Bft)
20.08.2009 11:00 26,6 C 55 % 1018,4 hPa 0,0 l/m S-SO 10,6 km/h (2 Bft)
20.08.2009 12:00 28,2 C 49 % 1018,2 hPa 0,0 l/m SO 6,8 km/h (2 Bft)
20.08.2009 13:00 29,9 C 44 % 1017,7 hPa 0,0 l/m S-SW 5,9 km/h (2 Bft)
20.08.2009 14:00 31,3 C 37 % 1017,3 hPa 0,0 l/m O-SO 6,0 km/h (2 Bft)
20.08.2009 15:00 32,3 C 32 % 1016,8 hPa 0,0 l/m O 6,7 km/h (2 Bft)
20.08.2009 16:00 32,9 C 29 % 1016,3 hPa 0,0 l/m O-SO 9,5 km/h (2 Bft)
20.08.2009 17:00 32,9 C 29 % 1015,8 hPa 0,0 l/m O-SO 9,1 km/h (2 Bft)
20.08.2009 18:00 31,8 C 36 % 1015,3 hPa 0,0 l/m O-SO 7,9 km/h (2 Bft)
20.08.2009 19:00 28,3 C 55 % 1015,1 hPa 0,0 l/m O-SO 3,6 km/h (1 Bft)
20.08.2009 20:00 24,3 C 68 % 1015,5 hPa 0,0 l/m N 2,0 km/h (1 Bft)
20.08.2009 21:00 22,5 C 74 % 1016,0 hPa 0,0 l/m N 0,9 km/h (0 Bft)
20.08.2009 22:00 21,3 C 79 % 1016,1 hPa 0,0 l/m N 0,1 km/h (0 Bft)
20.08.2009 23:00 20,4 C 84 % 1016,2 hPa 0,0 l/m N 0,0 km/h (0 Bft)
21.08.2009 00:00 19,5 C 87 % 1016,2 hPa 0,0 l/m N 0,3 km/h (0 Bft)
21.08.2009 01:00 18,8 C 90 % 1016,1 hPa 0,0 l/m N 0,0 km/h (0 Bft)
21.08.2009 02:00 18,5 C 92 % 1015,7 hPa 0,0 l/m N 0,4 km/h (0 Bft)
21.08.2009 03:00 18,9 C 91 % 1015,5 hPa 0,0 l/m N 2,0 km/h (1 Bft)
21.08.2009 04:00 19,1 C 90 % 1015,4 hPa 0,0 l/m S-SO 1,5 km/h (1 Bft)
21.08.2009 05:00 19,0 C 91 % 1015,4 hPa 0,0 l/m O-SO 2,4 km/h (1 Bft)
21.08.2009 06:00 19,2 C 91 % 1015,8 hPa 0,0 l/m O-NO 1,1 km/h (0 Bft)
21.08.2009 07:00 20,0 C 85 % 1016,9 hPa 0,0 l/m N-NW 11,4 km/h (2 Bft)
21.08.2009 08:00 20,1 C 81 % 1018,0 hPa 0,2 l/m N 17,3 km/h (3 Bft)
21.08.2009 09:00 20,1 C 81 % 1018,6 hPa 0,0 l/m NO 9,6 km/h (2 Bft)
21.08.2009 10:00 21,2 C 75 % 1019,2 hPa 0,0 l/m N-NO 6,7 km/h (2 Bft)
21.08.2009 11:00 22,2 C 71 % 1019,7 hPa 0,0 l/m NW 7,4 km/h (2 Bft)
21.08.2009 12:00 23,3 C 64 % 1019,6 hPa 0,0 l/m W-NW 11,4 km/h (2 Bft)
21.08.2009 13:00 22,6 C 65 % 1019,4 hPa 0,0 l/m W 9,4 km/h (2 Bft)
21.08.2009 14:00 20,9 C 79 % 1019,0 hPa 1,0 l/m W 6,1 km/h (2 Bft)
21.08.2009 15:00 22,4 C 67 % 1018,0 hPa 0,0 l/m S 5,1 km/h (1 Bft)
21.08.2009 16:00 24,1 C 62 % 1017,7 hPa 0,0 l/m W-SW 5,9 km/h (2 Bft)
21.08.2009 17:00 24,3 C 60 % 1017,3 hPa 0,0 l/m SW 6,8 km/h (2 Bft)
21.08.2009 18:00 23,9 C 64 % 1017,3 hPa 0,0 l/m O-SO 4,7 km/h (1 Bft)
21.08.2009 19:00 23,1 C 69 % 1017,0 hPa 0,0 l/m O-SO 3,7 km/h (1 Bft)
21.08.2009 20:00 20,8 C 78 % 1017,7 hPa 0,0 l/m N-NW 9,9 km/h (2 Bft)
21.08.2009 21:00 19,8 C 82 % 1018,5 hPa 0,0 l/m N 16,8 km/h (3 Bft)
21.08.2009 22:00 18,6 C 87 % 1019,0 hPa 0,0 l/m N-NO 10,3 km/h (2 Bft)
21.08.2009 23:00 18,1 C 85 % 1019,3 hPa 0,6 l/m NO 14,5 km/h (3 Bft)
22.08.2009 00:00 17,2 C 85 % 1019,4 hPa 0,0 l/m N 8,8 km/h (2 Bft)
22.08.2009 01:00 16,8 C 84 % 1019,7 hPa 0,0 l/m N 4,7 km/h (1 Bft)
22.08.2009 02:00 16,4 C 85 % 1019,5 hPa 0,0 l/m N 5,9 km/h (2 Bft)
22.08.2009 03:00 16,1 C 82 % 1019,5 hPa 0,0 l/m N-NO 9,9 km/h (2 Bft)
22.08.2009 04:00 14,9 C 85 % 1019,6 hPa 1,4 l/m N-NO 5,9 km/h (2 Bft)
22.08.2009 05:00 14,2 C 92 % 1020,1 hPa 2,4 l/m N 5,1 km/h (1 Bft)
22.08.2009 06:00 13,8 C 93 % 1020,4 hPa 0,8 l/m N-NO 3,7 km/h (1 Bft)
22.08.2009 07:00 13,5 C 92 % 1020,6 hPa 0,0 l/m N-NO 3,9 km/h (1 Bft)
22.08.2009 08:00 13,7 C 93 % 1021,1 hPa 0,0 l/m O-NO 3,1 km/h (1 Bft)
22.08.2009 09:00 14,4 C 89 % 1021,2 hPa 0,0 l/m O-SO 6,6 km/h (2 Bft)
22.08.2009 10:00 15,0 C 85 % 1021,4 hPa 0,0 l/m O-SO 7,8 km/h (2 Bft)
22.08.2009 11:00 15,1 C 83 % 1021,6 hPa 0,0 l/m O-SO 9,3 km/h (2 Bft)
22.08.2009 12:00 15,4 C 82 % 1021,5 hPa 0,0 l/m SO 6,9 km/h (2 Bft)
22.08.2009 13:00 15,8 C 81 % 1021,8 hPa 0,0 l/m O-SO 6,9 km/h (2 Bft)
22.08.2009 14:00 16,5 C 79 % 1021,7 hPa 0,0 l/m O-SO 7,7 km/h (2 Bft)
22.08.2009 15:00 17,8 C 72 % 1021,5 hPa 0,0 l/m O-NO 9,7 km/h (2 Bft)
22.08.2009 16:00 17,9 C 68 % 1021,6 hPa 0,0 l/m O-NO 12,8 km/h (3 Bft)
22.08.2009 17:00 18,4 C 57 % 1021,7 hPa 0,0 l/m O-NO 7,2 km/h (2 Bft)
22.08.2009 18:00 18,5 C 51 % 1021,9 hPa 0,0 l/m NO 7,9 km/h (2 Bft)
22.08.2009 19:00 17,2 C 62 % 1022,0 hPa 0,0 l/m O-NO 4,1 km/h (1 Bft)
22.08.2009 20:00 14,3 C 81 % 1022,4 hPa 0,0 l/m N 1,1 km/h (0 Bft)
22.08.2009 21:00 12,7 C 87 % 1022,9 hPa 0,0 l/m N 0,3 km/h (0 Bft)
22.08.2009 22:00 12,0 C 92 % 1023,0 hPa 0,0 l/m N 0,4 km/h (0 Bft)
22.08.2009 23:00 11,6 C 94 % 1023,3 hPa 0,0 l/m N 0,4 km/h (0 Bft)
23.08.2009 00:00 11,3 C 95 % 1023,2 hPa 0,0 l/m NO 2,5 km/h (1 Bft)
23.08.2009 01:00 11,1 C 95 % 1023,0 hPa 0,0 l/m N 2,4 km/h (1 Bft)
23.08.2009 02:00 10,8 C 95 % 1022,6 hPa 0,0 l/m N 1,6 km/h (1 Bft)
23.08.2009 03:00 10,4 C 95 % 1022,6 hPa 0,0 l/m N 3,1 km/h (1 Bft)
23.08.2009 04:00 10,2 C 96 % 1022,0 hPa 0,0 l/m N 4,1 km/h (1 Bft)
23.08.2009 05:00 9,9 C 96 % 1021,8 hPa 0,2 l/m N 4,9 km/h (1 Bft)
23.08.2009 06:00 9,6 C 96 % 1021,6 hPa 0,0 l/m NO 4,9 km/h (1 Bft)
23.08.2009 07:00 10,3 C 96 % 1021,5 hPa 0,0 l/m N-NO 6,0 km/h (2 Bft)
23.08.2009 08:00 12,4 C 89 % 1021,3 hPa 0,0 l/m NO 9,9 km/h (2 Bft)
23.08.2009 09:00 14,5 C 83 % 1021,1 hPa 0,0 l/m O-NO 13,7 km/h (3 Bft)
23.08.2009 10:00 16,5 C 76 % 1020,8 hPa 0,0 l/m O-NO 18,0 km/h (3 Bft)
23.08.2009 11:00 18,4 C 68 % 1020,4 hPa 0,0 l/m NO 23,2 km/h (4 Bft)
23.08.2009 12:00 20,1 C 61 % 1019,6 hPa 0,0 l/m O 24,8 km/h (4 Bft)
23.08.2009 13:00 21,1 C 57 % 1018,9 hPa 0,0 l/m O-NO 27,0 km/h (4 Bft)
23.08.2009 14:00 21,7 C 53 % 1018,5 hPa 0,0 l/m O-NO 24,9 km/h (4 Bft)
23.08.2009 15:00 22,2 C 52 % 1017,5 hPa 0,0 l/m O-SO 24,3 km/h (4 Bft)
23.08.2009 16:00 22,3 C 52 % 1016,9 hPa 0,0 l/m O-NO 22,4 km/h (4 Bft)
23.08.2009 17:00 21,8 C 52 % 1016,3 hPa 0,0 l/m O-NO 21,7 km/h (4 Bft)
23.08.2009 18:00 21,0 C 56 % 1015,9 hPa 0,0 l/m NO 19,2 km/h (3 Bft)
23.08.2009 19:00 20,0 C 60 % 1015,6 hPa 0,0 l/m O-NO 14,1 km/h (3 Bft)
23.08.2009 20:00 18,0 C 68 % 1015,3 hPa 0,0 l/m NO 8,3 km/h (2 Bft)
23.08.2009 21:00 16,2 C 76 % 1015,0 hPa 0,0 l/m N-NO 6,7 km/h (2 Bft)
23.08.2009 22:00 15,2 C 81 % 1014,7 hPa 0,0 l/m N-NO 6,7 km/h (2 Bft)
23.08.2009 23:00 14,4 C 85 % 1014,2 hPa 0,0 l/m N-NO 6,0 km/h (2 Bft)
Min-Datum _ 23.08.09 20.08.09 17.08.09 - - 17.08.09
_ Min-Zeit 06:40 17:15 18:50 - - 00:00
Minimum _ 9,4 C 27 % 1011,2 hPa - - 0,0 km/h (0 Bft)
Max-Datum _ 20.08.09 18.08.09 22.08.09 17.08.09 - 17.08.09
_ Max-Zeit 16:40 07:55 23:55 21:00 - 20:55
Maximum _ 33,1 C 98 % 1023,4 hPa 3,6 l/m - 38,6 km/h
N-NW (5 Bft)
Durchschnitt _ 20,1 C 75 % 1017,8 hPa #13,0 l/m O-SO 6,9 km/h (2 Bft)